Terminal Aerodrome Forecast
Issued by NWS Miami, FL

Home | Current Version | Previous Version | Text Only | Print | Product List | Glossary On
Versions: 1 2 3 4 5 6 7 8 9 10 11 12 13 14 15 16 17 18 19 20 21 22 23 24 25 26
000
FTUS42 KMFL 280900 AAA
TAFAPF
TAF AMD
KAPF 280900Z 2809/2906 VRB03KT P6SM VCSH FEW030 SCT080 SCT250
      TEMPO 2809/2811 VRB10G15KT 5SM SHRA SCT018 BKN035
     FM281600 26008KT P6SM VCTS SCT030CB BKN060=

USA.gov is the U.S. government's official web portal to all federal, state and local government web resources and services.